Tattenhall, United Kingdom
Current Conditions -  °F | °C
As of 1:20 PM on Monday 22 Dec 2014 (Local Time) from EGNR Reporting Station
Scattered Clouds Scattered Clouds  
Wind Chill: 59°   Ceiling: Unl
Heat Index: 59°   Visibility: 6mi
Dew Point: 50°   Wind: 17mph
Humidity: 72%   Direction: 240°WSW
Pressure: 29.85"   Gusts: 38mph
Location:  53.12°N, 2.77°W
Report Text: EGNR 221320Z 24015G33KT 9999 FEW015 SCT023 15/10 Q1011
Loading
Personal Weather Stations






























Interactive Weather Map New forecast layout! Learn more

10-Day Weather Forecast

Advertisements
Track Severe Weather on mobile